sensor_id;sensor_type;location;lat;lon;timestamp;P1;durP1;ratioP1;P2;durP2;ratioP2
77802;SDS011;66993;48.256;16.422;2023-03-23T00:02:24;15.2;;;9.0;;
77802;SDS011;66993;48.256;16.422;2023-03-23T00:07:25;16.4;;;9.4;;
77802;SDS011;66993;48.256;16.422;2023-03-23T00:12:27;13.8;;;8.7;;
77802;SDS011;66993;48.256;16.422;2023-03-23T00:17:28;15.5;;;10.2;;
77802;SDS011;66993;48.256;16.422;2023-03-23T00:22:29;18.6;;;10.2;;
77802;SDS011;66993;48.256;16.422;2023-03-23T00:27:30;16.4;;;10.0;;
77802;SDS011;66993;48.256;16.422;2023-03-23T00:32:31;17.7;;;10.2;;
77802;SDS011;66993;48.256;16.422;2023-03-23T00:37:33;17.1;;;10.8;;
77802;SDS011;66993;48.256;16.422;2023-03-23T00:42:34;15.4;;;10.2;;
77802;SDS011;66993;48.256;16.422;2023-03-23T00:47:35;18.7;;;10.4;;
77802;SDS011;66993;48.256;16.422;2023-03-23T00:52:37;16.6;;;10.4;;
77802;SDS011;66993;48.256;16.422;2023-03-23T00:57:38;16.4;;;9.8;;
77802;SDS011;66993;48.256;16.422;2023-03-23T01:02:39;15.8;;;10.1;;
77802;SDS011;66993;48.256;16.422;2023-03-23T01:07:40;15.1;;;10.1;;
77802;SDS011;66993;48.256;16.422;2023-03-23T01:12:43;15.9;;;10.7;;
77802;SDS011;66993;48.256;16.422;2023-03-23T01:17:43;18.7;;;11.3;;
77802;SDS011;66993;48.256;16.422;2023-03-23T01:22:44;17.5;;;11.2;;
77802;SDS011;66993;48.256;16.422;2023-03-23T01:27:45;16.2;;;10.5;;
77802;SDS011;66993;48.256;16.422;2023-03-23T01:32:47;19.1;;;11.3;;
77802;SDS011;66993;48.256;16.422;2023-03-23T01:37:48;17.3;;;11.5;;
77802;SDS011;66993;48.256;16.422;2023-03-23T01:42:49;17.4;;;11.3;;
77802;SDS011;66993;48.256;16.422;2023-03-23T01:47:52;17.0;;;11.5;;
77802;SDS011;66993;48.256;16.422;2023-03-23T01:52:52;18.8;;;11.2;;
77802;SDS011;66993;48.256;16.422;2023-03-23T01:57:53;18.3;;;11.9;;
77802;SDS011;66993;48.256;16.422;2023-03-23T02:02:55;17.9;;;11.8;;
77802;SDS011;66993;48.256;16.422;2023-03-23T02:07:56;15.8;;;10.3;;
77802;SDS011;66993;48.256;16.422;2023-03-23T02:12:57;18.5;;;12.3;;
77802;SDS011;66993;48.256;16.422;2023-03-23T02:18:00;15.6;;;10.5;;
77802;SDS011;66993;48.256;16.422;2023-03-23T02:23:05;19.8;;;12.9;;
77802;SDS011;66993;48.256;16.422;2023-03-23T02:28:05;18.8;;;12.3;;
77802;SDS011;66993;48.256;16.422;2023-03-23T02:38:04;17.5;;;11.9;;
77802;SDS011;66993;48.256;16.422;2023-03-23T02:43:06;18.7;;;12.4;;
77802;SDS011;66993;48.256;16.422;2023-03-23T02:48:06;17.4;;;11.7;;
77802;SDS011;66993;48.256;16.422;2023-03-23T02:53:08;18.6;;;12.9;;
77802;SDS011;66993;48.256;16.422;2023-03-23T02:58:09;17.7;;;11.8;;
77802;SDS011;66993;48.256;16.422;2023-03-23T03:03:11;18.0;;;11.7;;
77802;SDS011;66993;48.256;16.422;2023-03-23T03:08:13;17.5;;;11.7;;
77802;SDS011;66993;48.256;16.422;2023-03-23T03:13:14;19.4;;;12.7;;
77802;SDS011;66993;48.256;16.422;2023-03-23T03:18:15;18.2;;;12.2;;
77802;SDS011;66993;48.256;16.422;2023-03-23T03:23:15;18.7;;;11.9;;
77802;SDS011;66993;48.256;16.422;2023-03-23T03:28:17;17.3;;;11.0;;
77802;SDS011;66993;48.256;16.422;2023-03-23T03:33:18;18.0;;;12.2;;
77802;SDS011;66993;48.256;16.422;2023-03-23T03:38:19;17.1;;;10.5;;
77802;SDS011;66993;48.256;16.422;2023-03-23T03:43:20;20.0;;;12.1;;
77802;SDS011;66993;48.256;16.422;2023-03-23T03:48:22;18.1;;;12.6;;
77802;SDS011;66993;48.256;16.422;2023-03-23T03:53:23;18.9;;;11.6;;
77802;SDS011;66993;48.256;16.422;2023-03-23T03:58:24;19.5;;;12.7;;
77802;SDS011;66993;48.256;16.422;2023-03-23T04:03:25;19.4;;;12.3;;
77802;SDS011;66993;48.256;16.422;2023-03-23T04:08:27;19.9;;;13.1;;
77802;SDS011;66993;48.256;16.422;2023-03-23T04:13:28;17.3;;;11.2;;
77802;SDS011;66993;48.256;16.422;2023-03-23T04:18:29;17.0;;;11.9;;
77802;SDS011;66993;48.256;16.422;2023-03-23T04:23:31;20.9;;;13.1;;
77802;SDS011;66993;48.256;16.422;2023-03-23T04:28:32;19.3;;;12.1;;
77802;SDS011;66993;48.256;16.422;2023-03-23T04:33:33;21.5;;;12.6;;
77802;SDS011;66993;48.256;16.422;2023-03-23T04:38:34;23.4;;;13.4;;
77802;SDS011;66993;48.256;16.422;2023-03-23T04:43:36;20.8;;;13.4;;
77802;SDS011;66993;48.256;16.422;2023-03-23T04:48:37;23.6;;;13.6;;
77802;SDS011;66993;48.256;16.422;2023-03-23T04:53:38;22.7;;;14.4;;
77802;SDS011;66993;48.256;16.422;2023-03-23T04:58:39;21.1;;;14.0;;
77802;SDS011;66993;48.256;16.422;2023-03-23T05:03:41;21.0;;;13.0;;
77802;SDS011;66993;48.256;16.422;2023-03-23T05:08:42;22.4;;;14.0;;
77802;SDS011;66993;48.256;16.422;2023-03-23T05:13:43;20.4;;;12.7;;
77802;SDS011;66993;48.256;16.422;2023-03-23T05:18:44;23.0;;;13.7;;
77802;SDS011;66993;48.256;16.422;2023-03-23T05:23:46;21.4;;;14.5;;
77802;SDS011;66993;48.256;16.422;2023-03-23T05:28:47;25.4;;;15.9;;
77802;SDS011;66993;48.256;16.422;2023-03-23T05:33:49;24.9;;;15.0;;
77802;SDS011;66993;48.256;16.422;2023-03-23T05:38:50;24.0;;;14.6;;
77802;SDS011;66993;48.256;16.422;2023-03-23T05:43:51;25.4;;;16.4;;
77802;SDS011;66993;48.256;16.422;2023-03-23T05:48:52;24.8;;;15.9;;
77802;SDS011;66993;48.256;16.422;2023-03-23T05:53:53;24.0;;;14.2;;
77802;SDS011;66993;48.256;16.422;2023-03-23T05:58:55;21.8;;;14.0;;
77802;SDS011;66993;48.256;16.422;2023-03-23T06:03:56;23.0;;;14.3;;
77802;SDS011;66993;48.256;16.422;2023-03-23T06:08:57;18.9;;;13.3;;
77802;SDS011;66993;48.256;16.422;2023-03-23T06:13:59;21.7;;;14.0;;
77802;SDS011;66993;48.256;16.422;2023-03-23T06:18:59;17.8;;;10.5;;
77802;SDS011;66993;48.256;16.422;2023-03-23T06:24:01;17.0;;;10.7;;
77802;SDS011;66993;48.256;16.422;2023-03-23T06:29:02;17.1;;;10.6;;
77802;SDS011;66993;48.256;16.422;2023-03-23T06:34:03;17.9;;;10.4;;
77802;SDS011;66993;48.256;16.422;2023-03-23T06:39:05;16.2;;;10.3;;
77802;SDS011;66993;48.256;16.422;2023-03-23T06:44:07;13.7;;;8.8;;
77802;SDS011;66993;48.256;16.422;2023-03-23T06:49:07;12.9;;;8.7;;
77802;SDS011;66993;48.256;16.422;2023-03-23T06:54:09;11.6;;;8.2;;
77802;SDS011;66993;48.256;16.422;2023-03-23T06:59:10;13.7;;;8.6;;
77802;SDS011;66993;48.256;16.422;2023-03-23T07:04:12;12.8;;;8.3;;
77802;SDS011;66993;48.256;16.422;2023-03-23T07:09:12;13.3;;;7.9;;
77802;SDS011;66993;48.256;16.422;2023-03-23T07:14:14;13.2;;;8.3;;
77802;SDS011;66993;48.256;16.422;2023-03-23T07:19:15;14.3;;;8.2;;
77802;SDS011;66993;48.256;16.422;2023-03-23T07:24:16;14.5;;;8.7;;
77802;SDS011;66993;48.256;16.422;2023-03-23T07:29:17;13.4;;;8.4;;
77802;SDS011;66993;48.256;16.422;2023-03-23T07:34:19;15.5;;;9.1;;
77802;SDS011;66993;48.256;16.422;2023-03-23T07:39:20;14.2;;;9.2;;
77802;SDS011;66993;48.256;16.422;2023-03-23T07:44:22;15.9;;;9.1;;
77802;SDS011;66993;48.256;16.422;2023-03-23T07:49:22;15.2;;;9.3;;
77802;SDS011;66993;48.256;16.422;2023-03-23T07:54:24;18.2;;;9.9;;
77802;SDS011;66993;48.256;16.422;2023-03-23T07:59:25;15.6;;;9.4;;
77802;SDS011;66993;48.256;16.422;2023-03-23T08:04:27;15.8;;;10.1;;
77802;SDS011;66993;48.256;16.422;2023-03-23T08:09:28;17.3;;;11.1;;
77802;SDS011;66993;48.256;16.422;2023-03-23T08:14:29;19.3;;;10.7;;
77802;SDS011;66993;48.256;16.422;2023-03-23T08:19:30;17.3;;;11.6;;
77802;SDS011;66993;48.256;16.422;2023-03-23T08:24:31;17.2;;;11.1;;
77802;SDS011;66993;48.256;16.422;2023-03-23T08:29:33;18.7;;;12.4;;
77802;SDS011;66993;48.256;16.422;2023-03-23T08:34:34;19.8;;;13.2;;
77802;SDS011;66993;48.256;16.422;2023-03-23T08:39:35;23.2;;;14.1;;
77802;SDS011;66993;48.256;16.422;2023-03-23T08:44:37;22.1;;;14.1;;
77802;SDS011;66993;48.256;16.422;2023-03-23T08:49:38;22.6;;;13.9;;
77802;SDS011;66993;48.256;16.422;2023-03-23T08:54:39;22.4;;;14.4;;
77802;SDS011;66993;48.256;16.422;2023-03-23T08:59:40;22.6;;;14.4;;
77802;SDS011;66993;48.256;16.422;2023-03-23T09:04:42;20.5;;;13.7;;
77802;SDS011;66993;48.256;16.422;2023-03-23T09:09:43;19.4;;;14.0;;
77802;SDS011;66993;48.256;16.422;2023-03-23T09:14:44;21.4;;;13.4;;
77802;SDS011;66993;48.256;16.422;2023-03-23T09:19:45;21.7;;;13.5;;
77802;SDS011;66993;48.256;16.422;2023-03-23T09:24:47;19.5;;;13.6;;
77802;SDS011;66993;48.256;16.422;2023-03-23T09:29:48;22.2;;;13.9;;
77802;SDS011;66993;48.256;16.422;2023-03-23T09:34:49;18.3;;;12.0;;
77802;SDS011;66993;48.256;16.422;2023-03-23T09:39:50;20.6;;;13.0;;
77802;SDS011;66993;48.256;16.422;2023-03-23T09:44:56;19.4;;;12.1;;
77802;SDS011;66993;48.256;16.422;2023-03-23T09:49:54;18.5;;;11.6;;
77802;SDS011;66993;48.256;16.422;2023-03-23T09:54:54;18.6;;;12.0;;
77802;SDS011;66993;48.256;16.422;2023-03-23T09:59:56;14.8;;;10.2;;
77802;SDS011;66993;48.256;16.422;2023-03-23T10:05:00;18.4;;;10.7;;
77802;SDS011;66993;48.256;16.422;2023-03-23T10:09:59;18.3;;;11.3;;
77802;SDS011;66993;48.256;16.422;2023-03-23T10:15:03;16.3;;;10.8;;
77802;SDS011;66993;48.256;16.422;2023-03-23T10:20:04;16.5;;;11.4;;
77802;SDS011;66993;48.256;16.422;2023-03-23T10:25:05;19.9;;;11.5;;
77802;SDS011;66993;48.256;16.422;2023-03-23T10:30:10;20.2;;;12.1;;
77802;SDS011;66993;48.256;16.422;2023-03-23T10:35:06;16.4;;;10.1;;
77802;SDS011;66993;48.256;16.422;2023-03-23T10:40:11;15.6;;;10.3;;
77802;SDS011;66993;48.256;16.422;2023-03-23T10:45:11;15.8;;;9.8;;
77802;SDS011;66993;48.256;16.422;2023-03-23T10:50:11;16.7;;;10.0;;
77802;SDS011;66993;48.256;16.422;2023-03-23T10:55:11;14.7;;;10.0;;
77802;SDS011;66993;48.256;16.422;2023-03-23T11:05:16;18.1;;;10.2;;
77802;SDS011;66993;48.256;16.422;2023-03-23T11:10:16;16.2;;;9.0;;
77802;SDS011;66993;48.256;16.422;2023-03-23T11:15:20;14.9;;;9.4;;
77802;SDS011;66993;48.256;16.422;2023-03-23T11:20:19;14.4;;;9.0;;
77802;SDS011;66993;48.256;16.422;2023-03-23T11:25:18;14.9;;;9.5;;
77802;SDS011;66993;48.256;16.422;2023-03-23T11:30:20;13.7;;;8.4;;
77802;SDS011;66993;48.256;16.422;2023-03-23T11:35:21;12.2;;;8.3;;
77802;SDS011;66993;48.256;16.422;2023-03-23T11:40:22;13.6;;;8.0;;
77802;SDS011;66993;48.256;16.422;2023-03-23T11:45:25;10.5;;;7.5;;
77802;SDS011;66993;48.256;16.422;2023-03-23T11:50:24;13.3;;;8.5;;
77802;SDS011;66993;48.256;16.422;2023-03-23T11:55:26;12.9;;;7.3;;
77802;SDS011;66993;48.256;16.422;2023-03-23T12:00:26;13.0;;;7.5;;
77802;SDS011;66993;48.256;16.422;2023-03-23T12:05:30;11.9;;;6.5;;
77802;SDS011;66993;48.256;16.422;2023-03-23T12:10:30;10.6;;;6.8;;
77802;SDS011;66993;48.256;16.422;2023-03-23T12:15:32;12.3;;;6.6;;
77802;SDS011;66993;48.256;16.422;2023-03-23T12:20:34;12.3;;;6.7;;
77802;SDS011;66993;48.256;16.422;2023-03-23T12:25:38;12.4;;;6.8;;
77802;SDS011;66993;48.256;16.422;2023-03-23T12:30:35;12.8;;;7.5;;
77802;SDS011;66993;48.256;16.422;2023-03-23T12:35:38;15.0;;;6.7;;
77802;SDS011;66993;48.256;16.422;2023-03-23T12:40:41;10.6;;;6.7;;
77802;SDS011;66993;48.256;16.422;2023-03-23T12:45:43;10.2;;;5.6;;
77802;SDS011;66993;48.256;16.422;2023-03-23T12:50:40;12.5;;;5.9;;
77802;SDS011;66993;48.256;16.422;2023-03-23T12:55:42;10.4;;;5.8;;
77802;SDS011;66993;48.256;16.422;2023-03-23T13:00:49;9.7;;;5.8;;
77802;SDS011;66993;48.256;16.422;2023-03-23T13:05:44;10.8;;;5.2;;
77802;SDS011;66993;48.256;16.422;2023-03-23T13:10:45;9.2;;;5.5;;
77802;SDS011;66993;48.256;16.422;2023-03-23T13:15:50;11.2;;;5.3;;
77802;SDS011;66993;48.256;16.422;2023-03-23T13:20:50;10.1;;;5.3;;
77802;SDS011;66993;48.256;16.422;2023-03-23T13:25:51;8.3;;;4.9;;
77802;SDS011;66993;48.256;16.422;2023-03-23T13:30:53;7.5;;;4.6;;
77802;SDS011;66993;48.256;16.422;2023-03-23T13:35:51;9.4;;;4.9;;
77802;SDS011;66993;48.256;16.422;2023-03-23T13:40:52;9.2;;;4.7;;
77802;SDS011;66993;48.256;16.422;2023-03-23T13:45:53;8.0;;;5.0;;
77802;SDS011;66993;48.256;16.422;2023-03-23T13:50:55;7.6;;;4.4;;
77802;SDS011;66993;48.256;16.422;2023-03-23T14:01:03;7.3;;;4.0;;
77802;SDS011;66993;48.256;16.422;2023-03-23T14:06:02;7.4;;;3.5;;
77802;SDS011;66993;48.256;16.422;2023-03-23T14:11:01;8.5;;;4.0;;
77802;SDS011;66993;48.256;16.422;2023-03-23T14:16:01;8.0;;;3.9;;
77802;SDS011;66993;48.256;16.422;2023-03-23T14:21:03;6.5;;;3.8;;
77802;SDS011;66993;48.256;16.422;2023-03-23T14:26:06;6.0;;;3.6;;
77802;SDS011;66993;48.256;16.422;2023-03-23T14:31:05;5.4;;;3.8;;
77802;SDS011;66993;48.256;16.422;2023-03-23T14:36:06;7.1;;;3.6;;
77802;SDS011;66993;48.256;16.422;2023-03-23T14:41:10;6.5;;;3.6;;
77802;SDS011;66993;48.256;16.422;2023-03-23T14:46:08;5.4;;;3.5;;
77802;SDS011;66993;48.256;16.422;2023-03-23T14:51:16;7.5;;;3.6;;
77802;SDS011;66993;48.256;16.422;2023-03-23T14:56:12;6.2;;;3.4;;
77802;SDS011;66993;48.256;16.422;2023-03-23T15:01:14;6.3;;;3.8;;
77802;SDS011;66993;48.256;16.422;2023-03-23T15:06:14;6.8;;;3.6;;
77802;SDS011;66993;48.256;16.422;2023-03-23T15:16:17;7.0;;;3.9;;
77802;SDS011;66993;48.256;16.422;2023-03-23T15:21:20;5.4;;;3.3;;
77802;SDS011;66993;48.256;16.422;2023-03-23T15:26:24;6.2;;;3.6;;
77802;SDS011;66993;48.256;16.422;2023-03-23T15:31:20;6.8;;;3.7;;
77802;SDS011;66993;48.256;16.422;2023-03-23T15:36:20;7.3;;;3.8;;
77802;SDS011;66993;48.256;16.422;2023-03-23T15:41:22;5.8;;;3.4;;
77802;SDS011;66993;48.256;16.422;2023-03-23T15:46:23;6.4;;;3.7;;
77802;SDS011;66993;48.256;16.422;2023-03-23T15:51:25;5.5;;;3.8;;
77802;SDS011;66993;48.256;16.422;2023-03-23T15:56:25;5.9;;;3.5;;
77802;SDS011;66993;48.256;16.422;2023-03-23T16:01:27;8.3;;;4.0;;
77802;SDS011;66993;48.256;16.422;2023-03-23T16:06:30;8.3;;;4.5;;
77802;SDS011;66993;48.256;16.422;2023-03-23T16:11:30;7.8;;;5.1;;
77802;SDS011;66993;48.256;16.422;2023-03-23T16:16:31;8.3;;;4.6;;
77802;SDS011;66993;48.256;16.422;2023-03-23T16:21:32;8.4;;;4.5;;
77802;SDS011;66993;48.256;16.422;2023-03-23T16:26:33;7.3;;;4.7;;
77802;SDS011;66993;48.256;16.422;2023-03-23T16:31:34;8.7;;;5.5;;
77802;SDS011;66993;48.256;16.422;2023-03-23T16:36:35;8.2;;;5.3;;
77802;SDS011;66993;48.256;16.422;2023-03-23T16:41:37;14.9;;;8.2;;
77802;SDS011;66993;48.256;16.422;2023-03-23T16:46:38;14.7;;;8.8;;
77802;SDS011;66993;48.256;16.422;2023-03-23T16:51:39;14.4;;;7.6;;
77802;SDS011;66993;48.256;16.422;2023-03-23T16:56:40;11.1;;;6.5;;
77802;SDS011;66993;48.256;16.422;2023-03-23T17:01:42;13.1;;;7.4;;
77802;SDS011;66993;48.256;16.422;2023-03-23T17:06:43;12.1;;;6.4;;
77802;SDS011;66993;48.256;16.422;2023-03-23T17:11:45;12.4;;;6.1;;
77802;SDS011;66993;48.256;16.422;2023-03-23T17:16:45;10.9;;;6.2;;
77802;SDS011;66993;48.256;16.422;2023-03-23T17:21:47;11.0;;;6.4;;
77802;SDS011;66993;48.256;16.422;2023-03-23T17:26:48;12.2;;;6.5;;
77802;SDS011;66993;48.256;16.422;2023-03-23T17:31:49;11.2;;;6.6;;
77802;SDS011;66993;48.256;16.422;2023-03-23T17:36:50;12.6;;;7.4;;
77802;SDS011;66993;48.256;16.422;2023-03-23T17:41:53;13.7;;;7.8;;
77802;SDS011;66993;48.256;16.422;2023-03-23T17:46:53;14.5;;;8.7;;
77802;SDS011;66993;48.256;16.422;2023-03-23T17:51:54;14.8;;;8.0;;
77802;SDS011;66993;48.256;16.422;2023-03-23T17:56:56;13.4;;;8.7;;
77802;SDS011;66993;48.256;16.422;2023-03-23T18:01:57;18.5;;;10.3;;
77802;SDS011;66993;48.256;16.422;2023-03-23T18:06:58;18.3;;;10.8;;
77802;SDS011;66993;48.256;16.422;2023-03-23T18:11:59;17.0;;;10.7;;
77802;SDS011;66993;48.256;16.422;2023-03-23T18:17:01;17.6;;;10.9;;
77802;SDS011;66993;48.256;16.422;2023-03-23T18:22:02;21.5;;;15.0;;
77802;SDS011;66993;48.256;16.422;2023-03-23T18:27:03;70.0;;;44.4;;
77802;SDS011;66993;48.256;16.422;2023-03-23T18:32:04;39.7;;;26.8;;
77802;SDS011;66993;48.256;16.422;2023-03-23T18:37:06;26.6;;;18.5;;
77802;SDS011;66993;48.256;16.422;2023-03-23T18:42:07;20.9;;;13.1;;
77802;SDS011;66993;48.256;16.422;2023-03-23T18:47:08;19.8;;;12.8;;
77802;SDS011;66993;48.256;16.422;2023-03-23T18:52:09;24.5;;;14.2;;
77802;SDS011;66993;48.256;16.422;2023-03-23T18:57:11;27.2;;;14.8;;
77802;SDS011;66993;48.256;16.422;2023-03-23T19:02:12;24.2;;;15.0;;
77802;SDS011;66993;48.256;16.422;2023-03-23T19:07:14;23.2;;;13.7;;
77802;SDS011;66993;48.256;16.422;2023-03-23T19:12:15;21.7;;;12.5;;
77802;SDS011;66993;48.256;16.422;2023-03-23T19:17:16;23.0;;;13.0;;
77802;SDS011;66993;48.256;16.422;2023-03-23T19:22:17;21.3;;;12.9;;
77802;SDS011;66993;48.256;16.422;2023-03-23T19:27:18;18.4;;;11.6;;
77802;SDS011;66993;48.256;16.422;2023-03-23T19:32:20;18.2;;;11.7;;
77802;SDS011;66993;48.256;16.422;2023-03-23T19:37:21;20.8;;;11.8;;
77802;SDS011;66993;48.256;16.422;2023-03-23T19:42:22;16.9;;;10.5;;
77802;SDS011;66993;48.256;16.422;2023-03-23T19:47:23;17.6;;;11.6;;
77802;SDS011;66993;48.256;16.422;2023-03-23T19:52:25;21.1;;;12.1;;
77802;SDS011;66993;48.256;16.422;2023-03-23T19:57:26;21.6;;;12.8;;
77802;SDS011;66993;48.256;16.422;2023-03-23T20:02:27;21.8;;;12.7;;
77802;SDS011;66993;48.256;16.422;2023-03-23T20:07:28;20.5;;;11.8;;
77802;SDS011;66993;48.256;16.422;2023-03-23T20:12:30;20.5;;;12.3;;
77802;SDS011;66993;48.256;16.422;2023-03-23T20:17:31;21.1;;;12.3;;
77802;SDS011;66993;48.256;16.422;2023-03-23T20:22:33;22.1;;;13.0;;
77802;SDS011;66993;48.256;16.422;2023-03-23T20:27:33;24.9;;;13.7;;
77802;SDS011;66993;48.256;16.422;2023-03-23T20:32:35;24.2;;;12.8;;
77802;SDS011;66993;48.256;16.422;2023-03-23T20:37:36;21.5;;;13.4;;
77802;SDS011;66993;48.256;16.422;2023-03-23T20:42:37;32.1;;;19.5;;
77802;SDS011;66993;48.256;16.422;2023-03-23T20:47:38;24.2;;;14.0;;
77802;SDS011;66993;48.256;16.422;2023-03-23T20:52:40;23.4;;;13.9;;
77802;SDS011;66993;48.256;16.422;2023-03-23T20:57:41;31.7;;;17.6;;
77802;SDS011;66993;48.256;16.422;2023-03-23T21:02:42;49.1;;;26.4;;
77802;SDS011;66993;48.256;16.422;2023-03-23T21:07:45;58.2;;;30.7;;
77802;SDS011;66993;48.256;16.422;2023-03-23T21:12:45;29.1;;;16.2;;
77802;SDS011;66993;48.256;16.422;2023-03-23T21:17:46;34.8;;;19.6;;
77802;SDS011;66993;48.256;16.422;2023-03-23T21:22:47;29.1;;;16.4;;
77802;SDS011;66993;48.256;16.422;2023-03-23T21:27:49;32.0;;;17.7;;
77802;SDS011;66993;48.256;16.422;2023-03-23T21:32:50;30.0;;;16.9;;
77802;SDS011;66993;48.256;16.422;2023-03-23T21:37:51;29.7;;;15.6;;
77802;SDS011;66993;48.256;16.422;2023-03-23T21:42:52;27.1;;;16.1;;
77802;SDS011;66993;48.256;16.422;2023-03-23T21:47:54;26.2;;;15.9;;
77802;SDS011;66993;48.256;16.422;2023-03-23T21:52:55;26.1;;;15.5;;
77802;SDS011;66993;48.256;16.422;2023-03-23T21:57:56;25.2;;;14.8;;
77802;SDS011;66993;48.256;16.422;2023-03-23T22:02:58;23.5;;;14.3;;
77802;SDS011;66993;48.256;16.422;2023-03-23T22:07:59;28.3;;;14.3;;
77802;SDS011;66993;48.256;16.422;2023-03-23T22:13:00;25.4;;;15.4;;
77802;SDS011;66993;48.256;16.422;2023-03-23T22:18:02;27.3;;;15.0;;
77802;SDS011;66993;48.256;16.422;2023-03-23T22:23:03;24.0;;;14.9;;
77802;SDS011;66993;48.256;16.422;2023-03-23T22:28:04;24.2;;;14.7;;
77802;SDS011;66993;48.256;16.422;2023-03-23T22:33:05;25.1;;;16.4;;
77802;SDS011;66993;48.256;16.422;2023-03-23T22:38:07;25.6;;;15.6;;
77802;SDS011;66993;48.256;16.422;2023-03-23T22:43:08;28.9;;;16.3;;
77802;SDS011;66993;48.256;16.422;2023-03-23T22:48:10;23.0;;;15.2;;
77802;SDS011;66993;48.256;16.422;2023-03-23T22:53:11;26.8;;;16.2;;
77802;SDS011;66993;48.256;16.422;2023-03-23T22:58:12;33.3;;;19.0;;
77802;SDS011;66993;48.256;16.422;2023-03-23T23:03:13;32.1;;;19.2;;
77802;SDS011;66993;48.256;16.422;2023-03-23T23:08:15;32.0;;;18.4;;
77802;SDS011;66993;48.256;16.422;2023-03-23T23:13:16;32.1;;;19.6;;
77802;SDS011;66993;48.256;16.422;2023-03-23T23:18:17;32.1;;;19.3;;
77802;SDS011;66993;48.256;16.422;2023-03-23T23:23:18;33.4;;;19.9;;
77802;SDS011;66993;48.256;16.422;2023-03-23T23:28:20;30.1;;;18.2;;
77802;SDS011;66993;48.256;16.422;2023-03-23T23:33:21;35.7;;;20.3;;
77802;SDS011;66993;48.256;16.422;2023-03-23T23:38:22;29.1;;;19.2;;
77802;SDS011;66993;48.256;16.422;2023-03-23T23:43:23;30.7;;;18.8;;
77802;SDS011;66993;48.256;16.422;2023-03-23T23:48:25;31.7;;;19.4;;
77802;SDS011;66993;48.256;16.422;2023-03-23T23:53:26;32.3;;;19.9;;
77802;SDS011;66993;48.256;16.422;2023-03-23T23:58:28;35.4;;;20.5;;
